sensor_id;sensor_type;location;lat;lon;timestamp;P1;durP1;ratioP1;P2;durP2;ratioP2
79631;SDS011;69108;41.120;16.874;2023-06-19T00:00:53;7.05;;;3.97;;
79631;SDS011;69108;41.120;16.874;2023-06-19T00:03:21;7.47;;;3.97;;
79631;SDS011;69108;41.120;16.874;2023-06-19T00:05:51;6.68;;;3.53;;
79631;SDS011;69108;41.120;16.874;2023-06-19T00:08:19;6.75;;;3.53;;
79631;SDS011;69108;41.120;16.874;2023-06-19T00:10:48;6.45;;;3.63;;
79631;SDS011;69108;41.120;16.874;2023-06-19T00:13:15;11.05;;;3.83;;
79631;SDS011;69108;41.120;16.874;2023-06-19T00:15:44;9.20;;;4.00;;
79631;SDS011;69108;41.120;16.874;2023-06-19T00:18:11;8.05;;;3.67;;
79631;SDS011;69108;41.120;16.874;2023-06-19T00:20:38;7.28;;;3.72;;
79631;SDS011;69108;41.120;16.874;2023-06-19T00:23:05;6.50;;;3.90;;
79631;SDS011;69108;41.120;16.874;2023-06-19T00:25:37;7.60;;;3.70;;
79631;SDS011;69108;41.120;16.874;2023-06-19T00:30:37;6.63;;;3.53;;
79631;SDS011;69108;41.120;16.874;2023-06-19T00:33:11;7.00;;;3.65;;
79631;SDS011;69108;41.120;16.874;2023-06-19T00:35:38;8.43;;;3.75;;
79631;SDS011;69108;41.120;16.874;2023-06-19T00:38:07;6.55;;;3.40;;
79631;SDS011;69108;41.120;16.874;2023-06-19T00:40:35;6.85;;;3.95;;
79631;SDS011;69108;41.120;16.874;2023-06-19T00:43:02;6.45;;;3.50;;
79631;SDS011;69108;41.120;16.874;2023-06-19T00:45:30;8.73;;;4.55;;
79631;SDS011;69108;41.120;16.874;2023-06-19T00:47:57;8.95;;;4.97;;
79631;SDS011;69108;41.120;16.874;2023-06-19T00:50:29;9.60;;;5.00;;
79631;SDS011;69108;41.120;16.874;2023-06-19T00:52:59;10.90;;;5.18;;
79631;SDS011;69108;41.120;16.874;2023-06-19T00:55:29;11.80;;;5.07;;
79631;SDS011;69108;41.120;16.874;2023-06-19T01:00:25;11.70;;;4.90;;
79631;SDS011;69108;41.120;16.874;2023-06-19T01:02:53;12.40;;;5.47;;
79631;SDS011;69108;41.120;16.874;2023-06-19T01:05:20;9.38;;;4.47;;
79631;SDS011;69108;41.120;16.874;2023-06-19T01:07:52;9.77;;;5.35;;
79631;SDS011;69108;41.120;16.874;2023-06-19T01:10:24;10.35;;;4.97;;
79631;SDS011;69108;41.120;16.874;2023-06-19T01:12:54;9.98;;;4.90;;
79631;SDS011;69108;41.120;16.874;2023-06-19T01:15:24;9.10;;;4.82;;
79631;SDS011;69108;41.120;16.874;2023-06-19T01:17:53;8.93;;;4.10;;
79631;SDS011;69108;41.120;16.874;2023-06-19T01:20:19;8.68;;;4.35;;
79631;SDS011;69108;41.120;16.874;2023-06-19T01:22:48;9.65;;;4.85;;
79631;SDS011;69108;41.120;16.874;2023-06-19T01:25:15;9.10;;;4.63;;
79631;SDS011;69108;41.120;16.874;2023-06-19T01:27:42;8.95;;;4.22;;
79631;SDS011;69108;41.120;16.874;2023-06-19T01:30:13;8.65;;;4.30;;
79631;SDS011;69108;41.120;16.874;2023-06-19T01:32:44;8.40;;;4.18;;
79631;SDS011;69108;41.120;16.874;2023-06-19T01:35:15;8.30;;;4.50;;
79631;SDS011;69108;41.120;16.874;2023-06-19T01:37:48;8.32;;;4.15;;
79631;SDS011;69108;41.120;16.874;2023-06-19T01:40:15;8.27;;;4.32;;
79631;SDS011;69108;41.120;16.874;2023-06-19T01:42:49;8.73;;;4.13;;
79631;SDS011;69108;41.120;16.874;2023-06-19T01:45:17;9.23;;;4.45;;
79631;SDS011;69108;41.120;16.874;2023-06-19T01:47:47;7.35;;;4.25;;
79631;SDS011;69108;41.120;16.874;2023-06-19T01:50:28;9.32;;;4.18;;
79631;SDS011;69108;41.120;16.874;2023-06-19T01:53:01;6.65;;;3.72;;
79631;SDS011;69108;41.120;16.874;2023-06-19T01:55:52;8.50;;;4.18;;
79631;SDS011;69108;41.120;16.874;2023-06-19T01:58:18;9.27;;;4.20;;
79631;SDS011;69108;41.120;16.874;2023-06-19T02:00:45;8.02;;;4.22;;
79631;SDS011;69108;41.120;16.874;2023-06-19T02:03:16;7.60;;;3.88;;
79631;SDS011;69108;41.120;16.874;2023-06-19T02:05:44;10.38;;;4.63;;
79631;SDS011;69108;41.120;16.874;2023-06-19T02:08:12;7.22;;;3.92;;
79631;SDS011;69108;41.120;16.874;2023-06-19T02:10:39;9.65;;;4.47;;
79631;SDS011;69108;41.120;16.874;2023-06-19T02:13:06;8.35;;;4.30;;
79631;SDS011;69108;41.120;16.874;2023-06-19T02:15:33;9.43;;;4.53;;
79631;SDS011;69108;41.120;16.874;2023-06-19T02:18:03;8.05;;;4.35;;
79631;SDS011;69108;41.120;16.874;2023-06-19T02:20:31;8.32;;;3.95;;
79631;SDS011;69108;41.120;16.874;2023-06-19T02:22:58;8.05;;;4.10;;
79631;SDS011;69108;41.120;16.874;2023-06-19T02:25:26;7.65;;;3.90;;
79631;SDS011;69108;41.120;16.874;2023-06-19T02:27:53;8.73;;;4.55;;
79631;SDS011;69108;41.120;16.874;2023-06-19T02:30:20;9.50;;;4.10;;
79631;SDS011;69108;41.120;16.874;2023-06-19T02:32:47;8.18;;;3.60;;
79631;SDS011;69108;41.120;16.874;2023-06-19T02:35:15;8.98;;;3.85;;
79631;SDS011;69108;41.120;16.874;2023-06-19T02:37:43;9.55;;;4.55;;
79631;SDS011;69108;41.120;16.874;2023-06-19T02:40:11;7.90;;;3.97;;
79631;SDS011;69108;41.120;16.874;2023-06-19T02:42:43;8.45;;;3.95;;
79631;SDS011;69108;41.120;16.874;2023-06-19T02:45:10;7.72;;;3.80;;
79631;SDS011;69108;41.120;16.874;2023-06-19T02:47:38;7.78;;;3.55;;
79631;SDS011;69108;41.120;16.874;2023-06-19T02:50:06;8.52;;;4.10;;
79631;SDS011;69108;41.120;16.874;2023-06-19T02:54:59;8.68;;;3.95;;
79631;SDS011;69108;41.120;16.874;2023-06-19T02:57:26;11.75;;;4.75;;
79631;SDS011;69108;41.120;16.874;2023-06-19T02:59:55;9.45;;;4.13;;
79631;SDS011;69108;41.120;16.874;2023-06-19T03:02:24;7.28;;;3.92;;
79631;SDS011;69108;41.120;16.874;2023-06-19T03:04:51;7.75;;;3.88;;
79631;SDS011;69108;41.120;16.874;2023-06-19T03:07:18;10.50;;;3.65;;
79631;SDS011;69108;41.120;16.874;2023-06-19T03:09:45;7.18;;;3.72;;
79631;SDS011;69108;41.120;16.874;2023-06-19T03:12:12;9.77;;;3.80;;
79631;SDS011;69108;41.120;16.874;2023-06-19T03:14:40;9.55;;;4.10;;
79631;SDS011;69108;41.120;16.874;2023-06-19T03:17:12;10.68;;;4.18;;
79631;SDS011;69108;41.120;16.874;2023-06-19T03:19:40;9.73;;;4.20;;
79631;SDS011;69108;41.120;16.874;2023-06-19T03:24:38;6.50;;;3.60;;
79631;SDS011;69108;41.120;16.874;2023-06-19T03:27:09;8.43;;;3.90;;
79631;SDS011;69108;41.120;16.874;2023-06-19T03:29:36;10.15;;;4.40;;
79631;SDS011;69108;41.120;16.874;2023-06-19T03:32:04;8.45;;;4.25;;
79631;SDS011;69108;41.120;16.874;2023-06-19T03:34:33;6.85;;;4.07;;
79631;SDS011;69108;41.120;16.874;2023-06-19T03:37:05;7.60;;;4.00;;
79631;SDS011;69108;41.120;16.874;2023-06-19T03:39:32;11.35;;;4.50;;
79631;SDS011;69108;41.120;16.874;2023-06-19T03:42:04;9.10;;;4.40;;
79631;SDS011;69108;41.120;16.874;2023-06-19T03:44:33;7.93;;;4.47;;
79631;SDS011;69108;41.120;16.874;2023-06-19T03:47:06;13.43;;;4.40;;
79631;SDS011;69108;41.120;16.874;2023-06-19T03:49:42;9.05;;;4.60;;
79631;SDS011;69108;41.120;16.874;2023-06-19T03:52:10;11.45;;;4.68;;
79631;SDS011;69108;41.120;16.874;2023-06-19T03:54:37;10.05;;;4.03;;
79631;SDS011;69108;41.120;16.874;2023-06-19T03:57:07;8.82;;;4.13;;
79631;SDS011;69108;41.120;16.874;2023-06-19T03:59:39;9.18;;;3.83;;
79631;SDS011;69108;41.120;16.874;2023-06-19T04:02:06;8.38;;;3.70;;
79631;SDS011;69108;41.120;16.874;2023-06-19T04:04:35;8.35;;;3.75;;
79631;SDS011;69108;41.120;16.874;2023-06-19T04:09:36;9.05;;;3.58;;
79631;SDS011;69108;41.120;16.874;2023-06-19T04:12:03;7.10;;;3.45;;
79631;SDS011;69108;41.120;16.874;2023-06-19T04:14:31;7.78;;;4.53;;
79631;SDS011;69108;41.120;16.874;2023-06-19T04:17:01;9.35;;;4.40;;
79631;SDS011;69108;41.120;16.874;2023-06-19T04:21:57;10.90;;;4.60;;
79631;SDS011;69108;41.120;16.874;2023-06-19T04:24:25;8.95;;;4.40;;
79631;SDS011;69108;41.120;16.874;2023-06-19T04:26:52;9.50;;;4.38;;
79631;SDS011;69108;41.120;16.874;2023-06-19T04:29:21;8.02;;;4.32;;
79631;SDS011;69108;41.120;16.874;2023-06-19T04:31:48;12.10;;;5.05;;
79631;SDS011;69108;41.120;16.874;2023-06-19T04:34:17;9.45;;;5.30;;
79631;SDS011;69108;41.120;16.874;2023-06-19T04:36:48;9.00;;;4.65;;
79631;SDS011;69108;41.120;16.874;2023-06-19T04:39:15;8.80;;;5.15;;
79631;SDS011;69108;41.120;16.874;2023-06-19T04:41:44;10.25;;;5.50;;
79631;SDS011;69108;41.120;16.874;2023-06-19T04:44:12;10.95;;;5.60;;
79631;SDS011;69108;41.120;16.874;2023-06-19T04:46:40;9.43;;;4.95;;
79631;SDS011;69108;41.120;16.874;2023-06-19T04:49:09;9.07;;;4.78;;
79631;SDS011;69108;41.120;16.874;2023-06-19T04:51:38;10.35;;;5.07;;
79631;SDS011;69108;41.120;16.874;2023-06-19T04:54:05;9.88;;;5.38;;
79631;SDS011;69108;41.120;16.874;2023-06-19T04:56:32;13.35;;;5.30;;
79631;SDS011;69108;41.120;16.874;2023-06-19T04:59:11;14.40;;;5.70;;
79631;SDS011;69108;41.120;16.874;2023-06-19T05:01:43;12.68;;;5.75;;
79631;SDS011;69108;41.120;16.874;2023-06-19T05:04:13;14.05;;;5.70;;
79631;SDS011;69108;41.120;16.874;2023-06-19T05:06:40;9.93;;;5.10;;
79631;SDS011;69108;41.120;16.874;2023-06-19T05:09:08;12.48;;;5.68;;
79631;SDS011;69108;41.120;16.874;2023-06-19T05:11:36;13.65;;;5.85;;
79631;SDS011;69108;41.120;16.874;2023-06-19T05:14:04;14.52;;;5.78;;
79631;SDS011;69108;41.120;16.874;2023-06-19T05:16:35;14.35;;;6.20;;
79631;SDS011;69108;41.120;16.874;2023-06-19T05:19:02;14.52;;;6.25;;
79631;SDS011;69108;41.120;16.874;2023-06-19T05:21:29;19.08;;;6.75;;
79631;SDS011;69108;41.120;16.874;2023-06-19T05:23:56;17.48;;;6.45;;
79631;SDS011;69108;41.120;16.874;2023-06-19T05:28:51;12.93;;;6.50;;
79631;SDS011;69108;41.120;16.874;2023-06-19T05:31:18;11.98;;;5.80;;
79631;SDS011;69108;41.120;16.874;2023-06-19T05:33:47;15.65;;;6.57;;
79631;SDS011;69108;41.120;16.874;2023-06-19T05:36:16;20.05;;;7.35;;
79631;SDS011;69108;41.120;16.874;2023-06-19T05:38:45;12.80;;;6.05;;
79631;SDS011;69108;41.120;16.874;2023-06-19T05:41:13;16.45;;;6.78;;
79631;SDS011;69108;41.120;16.874;2023-06-19T05:43:41;14.18;;;6.68;;
79631;SDS011;69108;41.120;16.874;2023-06-19T05:46:09;15.20;;;7.07;;
79631;SDS011;69108;41.120;16.874;2023-06-19T05:48:39;15.68;;;6.18;;
79631;SDS011;69108;41.120;16.874;2023-06-19T05:51:08;18.55;;;7.25;;
79631;SDS011;69108;41.120;16.874;2023-06-19T05:53:36;17.58;;;6.32;;
79631;SDS011;69108;41.120;16.874;2023-06-19T05:56:04;14.38;;;5.93;;
79631;SDS011;69108;41.120;16.874;2023-06-19T05:58:32;11.18;;;5.38;;
79631;SDS011;69108;41.120;16.874;2023-06-19T06:01:00;12.15;;;5.72;;
79631;SDS011;69108;41.120;16.874;2023-06-19T06:03:32;12.50;;;5.53;;
79631;SDS011;69108;41.120;16.874;2023-06-19T06:06:01;10.60;;;5.30;;
79631;SDS011;69108;41.120;16.874;2023-06-19T06:08:30;12.10;;;5.72;;
79631;SDS011;69108;41.120;16.874;2023-06-19T06:10:58;8.20;;;4.57;;
79631;SDS011;69108;41.120;16.874;2023-06-19T06:13:26;9.82;;;4.82;;
79631;SDS011;69108;41.120;16.874;2023-06-19T06:15:56;13.80;;;5.47;;
79631;SDS011;69108;41.120;16.874;2023-06-19T06:18:23;13.75;;;4.72;;
79631;SDS011;69108;41.120;16.874;2023-06-19T06:20:52;10.38;;;5.10;;
79631;SDS011;69108;41.120;16.874;2023-06-19T06:23:21;9.70;;;4.80;;
79631;SDS011;69108;41.120;16.874;2023-06-19T06:25:53;12.43;;;4.95;;
79631;SDS011;69108;41.120;16.874;2023-06-19T06:28:29;8.95;;;4.95;;
79631;SDS011;69108;41.120;16.874;2023-06-19T06:30:59;9.60;;;5.20;;
79631;SDS011;69108;41.120;16.874;2023-06-19T06:33:33;10.65;;;5.72;;
79631;SDS011;69108;41.120;16.874;2023-06-19T06:36:04;13.70;;;5.70;;
79631;SDS011;69108;41.120;16.874;2023-06-19T06:38:34;11.57;;;5.72;;
79631;SDS011;69108;41.120;16.874;2023-06-19T06:41:03;15.15;;;5.75;;
79631;SDS011;69108;41.120;16.874;2023-06-19T06:43:35;11.25;;;6.07;;
79631;SDS011;69108;41.120;16.874;2023-06-19T06:46:08;16.02;;;5.70;;
79631;SDS011;69108;41.120;16.874;2023-06-19T06:51:23;12.52;;;5.80;;
79631;SDS011;69108;41.120;16.874;2023-06-19T06:53:53;11.07;;;6.10;;
79631;SDS011;69108;41.120;16.874;2023-06-19T06:56:22;11.43;;;5.15;;
79631;SDS011;69108;41.120;16.874;2023-06-19T06:58:49;8.95;;;4.95;;
79631;SDS011;69108;41.120;16.874;2023-06-19T07:01:17;9.88;;;4.70;;
79631;SDS011;69108;41.120;16.874;2023-06-19T07:03:47;9.70;;;5.43;;
79631;SDS011;69108;41.120;16.874;2023-06-19T07:06:17;8.85;;;4.88;;
79631;SDS011;69108;41.120;16.874;2023-06-19T07:08:48;9.80;;;4.75;;
79631;SDS011;69108;41.120;16.874;2023-06-19T07:11:18;9.77;;;4.50;;
79631;SDS011;69108;41.120;16.874;2023-06-19T07:13:47;9.13;;;4.85;;
79631;SDS011;69108;41.120;16.874;2023-06-19T07:16:17;7.82;;;4.05;;
79631;SDS011;69108;41.120;16.874;2023-06-19T07:18:44;10.85;;;4.60;;
79631;SDS011;69108;41.120;16.874;2023-06-19T07:23:38;9.63;;;4.55;;
79631;SDS011;69108;41.120;16.874;2023-06-19T07:26:09;10.73;;;5.88;;
79631;SDS011;69108;41.120;16.874;2023-06-19T07:31:07;8.20;;;4.40;;
79631;SDS011;69108;41.120;16.874;2023-06-19T07:33:35;8.18;;;4.53;;
79631;SDS011;69108;41.120;16.874;2023-06-19T07:36:04;10.70;;;5.05;;
79631;SDS011;69108;41.120;16.874;2023-06-19T07:38:31;9.27;;;5.07;;
79631;SDS011;69108;41.120;16.874;2023-06-19T07:41:00;11.05;;;5.28;;
79631;SDS011;69108;41.120;16.874;2023-06-19T07:43:27;10.57;;;5.13;;
79631;SDS011;69108;41.120;16.874;2023-06-19T07:45:56;14.57;;;5.55;;
79631;SDS011;69108;41.120;16.874;2023-06-19T07:48:24;9.32;;;4.63;;
79631;SDS011;69108;41.120;16.874;2023-06-19T07:50:52;12.02;;;5.97;;
79631;SDS011;69108;41.120;16.874;2023-06-19T07:53:21;10.13;;;4.93;;
79631;SDS011;69108;41.120;16.874;2023-06-19T07:55:48;9.52;;;5.00;;
79631;SDS011;69108;41.120;16.874;2023-06-19T07:58:17;8.80;;;5.43;;
79631;SDS011;69108;41.120;16.874;2023-06-19T08:00:47;8.82;;;5.18;;
79631;SDS011;69108;41.120;16.874;2023-06-19T08:03:16;9.07;;;5.20;;
79631;SDS011;69108;41.120;16.874;2023-06-19T08:05:45;12.80;;;6.70;;
79631;SDS011;69108;41.120;16.874;2023-06-19T08:08:18;8.50;;;4.93;;
79631;SDS011;69108;41.120;16.874;2023-06-19T08:10:45;7.97;;;5.00;;
79631;SDS011;69108;41.120;16.874;2023-06-19T08:13:13;8.93;;;4.65;;
79631;SDS011;69108;41.120;16.874;2023-06-19T08:15:41;7.28;;;4.60;;
79631;SDS011;69108;41.120;16.874;2023-06-19T08:18:10;7.68;;;4.70;;
79631;SDS011;69108;41.120;16.874;2023-06-19T08:23:12;7.18;;;4.32;;
79631;SDS011;69108;41.120;16.874;2023-06-19T08:25:41;7.68;;;4.60;;
79631;SDS011;69108;41.120;16.874;2023-06-19T08:28:09;9.70;;;4.80;;
79631;SDS011;69108;41.120;16.874;2023-06-19T08:30:36;10.38;;;5.03;;
79631;SDS011;69108;41.120;16.874;2023-06-19T08:33:04;13.25;;;6.00;;
79631;SDS011;69108;41.120;16.874;2023-06-19T08:35:40;12.30;;;6.32;;
79631;SDS011;69108;41.120;16.874;2023-06-19T08:38:07;9.65;;;6.15;;
79631;SDS011;69108;41.120;16.874;2023-06-19T08:40:42;10.40;;;6.25;;
79631;SDS011;69108;41.120;16.874;2023-06-19T08:43:13;7.32;;;4.40;;
79631;SDS011;69108;41.120;16.874;2023-06-19T08:45:42;7.15;;;4.28;;
79631;SDS011;69108;41.120;16.874;2023-06-19T08:48:13;7.63;;;4.90;;
79631;SDS011;69108;41.120;16.874;2023-06-19T08:50:43;7.15;;;4.40;;
79631;SDS011;69108;41.120;16.874;2023-06-19T08:53:11;8.50;;;4.38;;
79631;SDS011;69108;41.120;16.874;2023-06-19T08:55:43;8.05;;;4.20;;
79631;SDS011;69108;41.120;16.874;2023-06-19T08:58:11;7.60;;;5.20;;
79631;SDS011;69108;41.120;16.874;2023-06-19T09:00:39;9.75;;;4.40;;
79631;SDS011;69108;41.120;16.874;2023-06-19T09:03:18;10.20;;;4.35;;
79631;SDS011;69108;41.120;16.874;2023-06-19T09:05:48;7.45;;;4.57;;
79631;SDS011;69108;41.120;16.874;2023-06-19T09:08:17;8.63;;;4.50;;
79631;SDS011;69108;41.120;16.874;2023-06-19T09:10:57;8.27;;;4.95;;
79631;SDS011;69108;41.120;16.874;2023-06-19T09:13:28;7.95;;;4.20;;
79631;SDS011;69108;41.120;16.874;2023-06-19T09:15:57;9.55;;;4.53;;
79631;SDS011;69108;41.120;16.874;2023-06-19T09:18:29;6.07;;;4.25;;
79631;SDS011;69108;41.120;16.874;2023-06-19T09:20:58;6.82;;;4.40;;
79631;SDS011;69108;41.120;16.874;2023-06-19T09:23:30;7.50;;;4.88;;
79631;SDS011;69108;41.120;16.874;2023-06-19T09:26:01;6.40;;;4.13;;
79631;SDS011;69108;41.120;16.874;2023-06-19T09:28:31;8.13;;;4.65;;
79631;SDS011;69108;41.120;16.874;2023-06-19T09:30:59;8.98;;;4.82;;
79631;SDS011;69108;41.120;16.874;2023-06-19T09:33:36;7.85;;;4.68;;
79631;SDS011;69108;41.120;16.874;2023-06-19T09:36:05;8.07;;;3.80;;
79631;SDS011;69108;41.120;16.874;2023-06-19T09:38:34;6.00;;;3.40;;
79631;SDS011;69108;41.120;16.874;2023-06-19T09:41:06;7.85;;;3.85;;
79631;SDS011;69108;41.120;16.874;2023-06-19T09:43:34;6.22;;;3.42;;
79631;SDS011;69108;41.120;16.874;2023-06-19T09:46:06;5.90;;;3.35;;
79631;SDS011;69108;41.120;16.874;2023-06-19T09:48:39;7.53;;;4.60;;
79631;SDS011;69108;41.120;16.874;2023-06-19T09:51:17;9.75;;;3.70;;
79631;SDS011;69108;41.120;16.874;2023-06-19T09:53:47;6.45;;;3.00;;
79631;SDS011;69108;41.120;16.874;2023-06-19T09:56:17;5.07;;;3.25;;
79631;SDS011;69108;41.120;16.874;2023-06-19T09:58:46;6.72;;;3.75;;
79631;SDS011;69108;41.120;16.874;2023-06-19T10:01:16;6.75;;;2.92;;
79631;SDS011;69108;41.120;16.874;2023-06-19T10:03:43;5.68;;;3.42;;
79631;SDS011;69108;41.120;16.874;2023-06-19T10:06:13;5.63;;;3.17;;
79631;SDS011;69108;41.120;16.874;2023-06-19T10:08:43;7.70;;;6.22;;
79631;SDS011;69108;41.120;16.874;2023-06-19T10:11:12;5.63;;;3.63;;
79631;SDS011;69108;41.120;16.874;2023-06-19T10:16:20;5.80;;;3.40;;
79631;SDS011;69108;41.120;16.874;2023-06-19T10:18:56;6.40;;;3.47;;
79631;SDS011;69108;41.120;16.874;2023-06-19T10:21:25;5.50;;;3.20;;
79631;SDS011;69108;41.120;16.874;2023-06-19T10:23:55;11.25;;;4.03;;
79631;SDS011;69108;41.120;16.874;2023-06-19T10:26:30;8.73;;;3.50;;
79631;SDS011;69108;41.120;16.874;2023-06-19T10:29:13;11.50;;;3.88;;
79631;SDS011;69108;41.120;16.874;2023-06-19T10:31:40;7.50;;;4.72;;
79631;SDS011;69108;41.120;16.874;2023-06-19T10:34:08;8.68;;;3.65;;
79631;SDS011;69108;41.120;16.874;2023-06-19T10:36:35;11.13;;;5.13;;
79631;SDS011;69108;41.120;16.874;2023-06-19T10:39:04;7.03;;;3.38;;
79631;SDS011;69108;41.120;16.874;2023-06-19T10:41:34;8.35;;;4.28;;
79631;SDS011;69108;41.120;16.874;2023-06-19T10:44:02;8.48;;;3.40;;
79631;SDS011;69108;41.120;16.874;2023-06-19T10:46:31;10.23;;;5.32;;
79631;SDS011;69108;41.120;16.874;2023-06-19T10:49:02;7.82;;;4.13;;
79631;SDS011;69108;41.120;16.874;2023-06-19T10:51:30;6.30;;;3.25;;
79631;SDS011;69108;41.120;16.874;2023-06-19T10:53:57;10.00;;;4.10;;
79631;SDS011;69108;41.120;16.874;2023-06-19T10:56:27;5.30;;;3.25;;
79631;SDS011;69108;41.120;16.874;2023-06-19T10:58:59;8.88;;;4.35;;
79631;SDS011;69108;41.120;16.874;2023-06-19T11:01:33;5.72;;;3.67;;
79631;SDS011;69108;41.120;16.874;2023-06-19T11:04:16;9.10;;;4.03;;
79631;SDS011;69108;41.120;16.874;2023-06-19T11:06:44;6.47;;;4.03;;
79631;SDS011;69108;41.120;16.874;2023-06-19T11:09:16;7.10;;;3.60;;
79631;SDS011;69108;41.120;16.874;2023-06-19T11:11:45;5.78;;;3.15;;
79631;SDS011;69108;41.120;16.874;2023-06-19T11:14:20;5.45;;;3.30;;
79631;SDS011;69108;41.120;16.874;2023-06-19T11:16:49;6.72;;;3.40;;
79631;SDS011;69108;41.120;16.874;2023-06-19T11:19:18;5.82;;;3.40;;
79631;SDS011;69108;41.120;16.874;2023-06-19T11:21:49;7.55;;;4.32;;
79631;SDS011;69108;41.120;16.874;2023-06-19T11:24:20;8.40;;;3.92;;
79631;SDS011;69108;41.120;16.874;2023-06-19T11:26:49;8.98;;;4.03;;
79631;SDS011;69108;41.120;16.874;2023-06-19T11:29:18;5.22;;;3.22;;
79631;SDS011;69108;41.120;16.874;2023-06-19T11:31:48;7.57;;;3.97;;
79631;SDS011;69108;41.120;16.874;2023-06-19T11:34:16;6.20;;;3.40;;
79631;SDS011;69108;41.120;16.874;2023-06-19T11:36:44;6.93;;;3.67;;
79631;SDS011;69108;41.120;16.874;2023-06-19T11:41:38;10.18;;;5.18;;
79631;SDS011;69108;41.120;16.874;2023-06-19T11:44:07;6.70;;;3.67;;
79631;SDS011;69108;41.120;16.874;2023-06-19T11:46:37;7.68;;;3.95;;
79631;SDS011;69108;41.120;16.874;2023-06-19T11:49:07;6.32;;;3.97;;
79631;SDS011;69108;41.120;16.874;2023-06-19T11:51:35;6.97;;;3.95;;
79631;SDS011;69108;41.120;16.874;2023-06-19T11:56:30;6.53;;;3.70;;
79631;SDS011;69108;41.120;16.874;2023-06-19T11:58:57;6.18;;;3.83;;
79631;SDS011;69108;41.120;16.874;2023-06-19T12:01:24;7.95;;;3.55;;
79631;SDS011;69108;41.120;16.874;2023-06-19T12:03:52;6.72;;;3.55;;
79631;SDS011;69108;41.120;16.874;2023-06-19T12:06:20;6.63;;;3.67;;
79631;SDS011;69108;41.120;16.874;2023-06-19T12:08:48;8.32;;;3.83;;
79631;SDS011;69108;41.120;16.874;2023-06-19T12:13:42;7.18;;;3.38;;
79631;SDS011;69108;41.120;16.874;2023-06-19T12:16:10;6.40;;;3.80;;
79631;SDS011;69108;41.120;16.874;2023-06-19T12:18:40;7.10;;;3.53;;
79631;SDS011;69108;41.120;16.874;2023-06-19T12:21:12;6.30;;;3.33;;
79631;SDS011;69108;41.120;16.874;2023-06-19T12:23:40;7.88;;;3.55;;
79631;SDS011;69108;41.120;16.874;2023-06-19T12:26:11;8.02;;;4.05;;
79631;SDS011;69108;41.120;16.874;2023-06-19T12:28:39;6.68;;;3.75;;
79631;SDS011;69108;41.120;16.874;2023-06-19T12:31:08;8.55;;;4.18;;
79631;SDS011;69108;41.120;16.874;2023-06-19T12:33:36;7.68;;;3.88;;
79631;SDS011;69108;41.120;16.874;2023-06-19T12:36:13;7.13;;;3.40;;
79631;SDS011;69108;41.120;16.874;2023-06-19T12:38:42;6.32;;;3.45;;
79631;SDS011;69108;41.120;16.874;2023-06-19T12:41:11;6.28;;;3.55;;
79631;SDS011;69108;41.120;16.874;2023-06-19T12:43:38;5.75;;;3.30;;
79631;SDS011;69108;41.120;16.874;2023-06-19T12:46:09;5.82;;;3.67;;
79631;SDS011;69108;41.120;16.874;2023-06-19T12:48:37;7.85;;;3.55;;
79631;SDS011;69108;41.120;16.874;2023-06-19T12:51:06;5.32;;;3.20;;
79631;SDS011;69108;41.120;16.874;2023-06-19T12:53:36;5.90;;;3.10;;
79631;SDS011;69108;41.120;16.874;2023-06-19T12:56:05;5.95;;;3.50;;
79631;SDS011;69108;41.120;16.874;2023-06-19T12:58:33;6.22;;;3.33;;
79631;SDS011;69108;41.120;16.874;2023-06-19T13:01:00;5.50;;;3.10;;
79631;SDS011;69108;41.120;16.874;2023-06-19T13:03:29;6.13;;;3.60;;
79631;SDS011;69108;41.120;16.874;2023-06-19T13:05:56;6.03;;;3.45;;
79631;SDS011;69108;41.120;16.874;2023-06-19T13:11:01;6.03;;;3.42;;
79631;SDS011;69108;41.120;16.874;2023-06-19T13:13:30;6.45;;;3.40;;
79631;SDS011;69108;41.120;16.874;2023-06-19T13:15:59;7.57;;;4.22;;
79631;SDS011;69108;41.120;16.874;2023-06-19T13:18:29;6.65;;;3.72;;
79631;SDS011;69108;41.120;16.874;2023-06-19T13:20:58;7.88;;;3.92;;
79631;SDS011;69108;41.120;16.874;2023-06-19T13:23:28;6.43;;;3.28;;
79631;SDS011;69108;41.120;16.874;2023-06-19T13:25:58;8.30;;;4.00;;
79631;SDS011;69108;41.120;16.874;2023-06-19T13:28:25;6.45;;;3.53;;
79631;SDS011;69108;41.120;16.874;2023-06-19T13:30:56;5.35;;;3.05;;
79631;SDS011;69108;41.120;16.874;2023-06-19T13:33:25;7.25;;;3.58;;
79631;SDS011;69108;41.120;16.874;2023-06-19T13:38:19;7.47;;;3.20;;
79631;SDS011;69108;41.120;16.874;2023-06-19T13:40:47;6.97;;;3.60;;
79631;SDS011;69108;41.120;16.874;2023-06-19T13:43:16;8.63;;;3.65;;
79631;SDS011;69108;41.120;16.874;2023-06-19T13:45:45;6.97;;;3.42;;
79631;SDS011;69108;41.120;16.874;2023-06-19T13:50:38;5.75;;;3.58;;
79631;SDS011;69108;41.120;16.874;2023-06-19T13:53:07;6.20;;;4.03;;
79631;SDS011;69108;41.120;16.874;2023-06-19T13:55:34;6.95;;;3.50;;
79631;SDS011;69108;41.120;16.874;2023-06-19T13:58:02;6.97;;;3.63;;
79631;SDS011;69108;41.120;16.874;2023-06-19T14:00:32;8.52;;;5.38;;
79631;SDS011;69108;41.120;16.874;2023-06-19T14:03:02;6.07;;;3.47;;
79631;SDS011;69108;41.120;16.874;2023-06-19T14:05:31;6.78;;;3.60;;
79631;SDS011;69108;41.120;16.874;2023-06-19T14:07:59;8.13;;;3.97;;
79631;SDS011;69108;41.120;16.874;2023-06-19T14:10:28;7.82;;;3.47;;
79631;SDS011;69108;41.120;16.874;2023-06-19T14:12:57;7.47;;;3.33;;
79631;SDS011;69108;41.120;16.874;2023-06-19T14:15:25;8.10;;;4.13;;
79631;SDS011;69108;41.120;16.874;2023-06-19T14:17:54;6.80;;;3.40;;
79631;SDS011;69108;41.120;16.874;2023-06-19T14:20:24;5.78;;;3.30;;
79631;SDS011;69108;41.120;16.874;2023-06-19T14:22:53;9.68;;;3.38;;
79631;SDS011;69108;41.120;16.874;2023-06-19T14:25:21;7.05;;;3.95;;
79631;SDS011;69108;41.120;16.874;2023-06-19T14:27:48;9.20;;;3.67;;
79631;SDS011;69108;41.120;16.874;2023-06-19T14:30:16;6.40;;;3.70;;
79631;SDS011;69108;41.120;16.874;2023-06-19T14:35:14;7.93;;;3.38;;
79631;SDS011;69108;41.120;16.874;2023-06-19T14:37:44;10.07;;;5.10;;
79631;SDS011;69108;41.120;16.874;2023-06-19T14:40:27;5.95;;;2.72;;
79631;SDS011;69108;41.120;16.874;2023-06-19T14:42:56;6.43;;;2.83;;
79631;SDS011;69108;41.120;16.874;2023-06-19T14:45:40;6.28;;;3.05;;
79631;SDS011;69108;41.120;16.874;2023-06-19T14:48:22;7.80;;;3.22;;
79631;SDS011;69108;41.120;16.874;2023-06-19T14:51:00;6.10;;;3.35;;
79631;SDS011;69108;41.120;16.874;2023-06-19T14:53:31;15.35;;;7.03;;
79631;SDS011;69108;41.120;16.874;2023-06-19T14:56:00;7.05;;;3.83;;
79631;SDS011;69108;41.120;16.874;2023-06-19T14:58:30;10.65;;;5.55;;
79631;SDS011;69108;41.120;16.874;2023-06-19T15:00:58;8.98;;;4.20;;
79631;SDS011;69108;41.120;16.874;2023-06-19T15:03:31;11.10;;;4.88;;
79631;SDS011;69108;41.120;16.874;2023-06-19T15:06:00;19.98;;;5.72;;
79631;SDS011;69108;41.120;16.874;2023-06-19T15:08:28;22.58;;;5.20;;
79631;SDS011;69108;41.120;16.874;2023-06-19T15:11:01;9.20;;;4.15;;
79631;SDS011;69108;41.120;16.874;2023-06-19T15:13:29;11.50;;;3.67;;
79631;SDS011;69108;41.120;16.874;2023-06-19T15:16:05;51.03;;;9.38;;
79631;SDS011;69108;41.120;16.874;2023-06-19T15:18:39;36.03;;;9.20;;
79631;SDS011;69108;41.120;16.874;2023-06-19T15:21:32;39.22;;;7.70;;
79631;SDS011;69108;41.120;16.874;2023-06-19T15:24:03;6.65;;;3.53;;
79631;SDS011;69108;41.120;16.874;2023-06-19T15:26:33;10.05;;;3.60;;
79631;SDS011;69108;41.120;16.874;2023-06-19T15:29:02;8.13;;;3.40;;
79631;SDS011;69108;41.120;16.874;2023-06-19T15:31:32;6.38;;;3.47;;